sensor_id;sensor_type;location;lat;lon;timestamp;P1;durP1;ratioP1;P2;durP2;ratioP2
3343;SDS011;1685;53.104;8.228;2024-02-21T00:02:21;49.03;;;21.43;;
3343;SDS011;1685;53.104;8.228;2024-02-21T00:04:48;41.87;;;20.70;;
3343;SDS011;1685;53.104;8.228;2024-02-21T00:07:15;43.37;;;22.20;;
3343;SDS011;1685;53.104;8.228;2024-02-21T00:09:42;48.20;;;23.47;;
3343;SDS011;1685;53.104;8.228;2024-02-21T00:12:11;36.23;;;20.70;;
3343;SDS011;1685;53.104;8.228;2024-02-21T00:14:39;58.10;;;22.47;;
3343;SDS011;1685;53.104;8.228;2024-02-21T00:17:06;40.70;;;24.07;;
3343;SDS011;1685;53.104;8.228;2024-02-21T00:19:34;42.00;;;23.13;;
3343;SDS011;1685;53.104;8.228;2024-02-21T00:22:01;43.70;;;23.90;;
3343;SDS011;1685;53.104;8.228;2024-02-21T00:24:28;45.00;;;21.53;;
3343;SDS011;1685;53.104;8.228;2024-02-21T00:26:56;41.73;;;22.80;;
3343;SDS011;1685;53.104;8.228;2024-02-21T00:29:24;49.23;;;23.47;;
3343;SDS011;1685;53.104;8.228;2024-02-21T00:31:52;47.70;;;23.37;;
3343;SDS011;1685;53.104;8.228;2024-02-21T00:34:19;50.60;;;21.70;;
3343;SDS011;1685;53.104;8.228;2024-02-21T00:36:46;44.83;;;21.80;;
3343;SDS011;1685;53.104;8.228;2024-02-21T00:39:14;47.90;;;23.60;;
3343;SDS011;1685;53.104;8.228;2024-02-21T00:41:42;42.40;;;20.93;;
3343;SDS011;1685;53.104;8.228;2024-02-21T00:44:09;55.10;;;22.77;;
3343;SDS011;1685;53.104;8.228;2024-02-21T00:46:37;47.93;;;20.80;;
3343;SDS011;1685;53.104;8.228;2024-02-21T00:49:04;38.80;;;21.73;;
3343;SDS011;1685;53.104;8.228;2024-02-21T00:51:32;40.17;;;20.43;;
3343;SDS011;1685;53.104;8.228;2024-02-21T00:53:59;42.13;;;19.60;;
3343;SDS011;1685;53.104;8.228;2024-02-21T00:56:26;46.47;;;20.20;;
3343;SDS011;1685;53.104;8.228;2024-02-21T00:58:54;45.60;;;20.67;;
3343;SDS011;1685;53.104;8.228;2024-02-21T01:01:22;40.90;;;18.50;;
3343;SDS011;1685;53.104;8.228;2024-02-21T01:03:50;45.93;;;20.87;;
3343;SDS011;1685;53.104;8.228;2024-02-21T01:06:18;36.47;;;20.30;;
3343;SDS011;1685;53.104;8.228;2024-02-21T01:08:46;35.83;;;19.90;;
3343;SDS011;1685;53.104;8.228;2024-02-21T01:11:13;45.73;;;20.63;;
3343;SDS011;1685;53.104;8.228;2024-02-21T01:13:40;52.73;;;20.57;;
3343;SDS011;1685;53.104;8.228;2024-02-21T01:16:07;42.50;;;19.67;;
3343;SDS011;1685;53.104;8.228;2024-02-21T01:18:36;35.93;;;19.27;;
3343;SDS011;1685;53.104;8.228;2024-02-21T01:21:06;33.63;;;17.83;;
3343;SDS011;1685;53.104;8.228;2024-02-21T01:23:35;46.50;;;20.27;;
3343;SDS011;1685;53.104;8.228;2024-02-21T01:26:02;46.43;;;19.27;;
3343;SDS011;1685;53.104;8.228;2024-02-21T01:28:29;44.43;;;20.50;;
3343;SDS011;1685;53.104;8.228;2024-02-21T01:30:56;34.53;;;19.27;;
3343;SDS011;1685;53.104;8.228;2024-02-21T01:33:24;35.30;;;19.70;;
3343;SDS011;1685;53.104;8.228;2024-02-21T01:35:51;40.13;;;19.10;;
3343;SDS011;1685;53.104;8.228;2024-02-21T01:38:19;46.90;;;20.03;;
3343;SDS011;1685;53.104;8.228;2024-02-21T01:40:47;37.90;;;17.27;;
3343;SDS011;1685;53.104;8.228;2024-02-21T01:43:17;42.97;;;19.67;;
3343;SDS011;1685;53.104;8.228;2024-02-21T01:45:46;34.17;;;18.87;;
3343;SDS011;1685;53.104;8.228;2024-02-21T01:48:15;43.03;;;18.37;;
3343;SDS011;1685;53.104;8.228;2024-02-21T01:50:42;33.80;;;17.33;;
3343;SDS011;1685;53.104;8.228;2024-02-21T01:53:10;29.43;;;18.00;;
3343;SDS011;1685;53.104;8.228;2024-02-21T01:55:44;35.30;;;18.27;;
3343;SDS011;1685;53.104;8.228;2024-02-21T01:58:11;33.27;;;18.10;;
3343;SDS011;1685;53.104;8.228;2024-02-21T02:00:38;44.53;;;19.30;;
3343;SDS011;1685;53.104;8.228;2024-02-21T02:03:07;34.70;;;17.20;;
3343;SDS011;1685;53.104;8.228;2024-02-21T02:05:35;44.20;;;19.13;;
3343;SDS011;1685;53.104;8.228;2024-02-21T02:08:02;40.77;;;17.47;;
3343;SDS011;1685;53.104;8.228;2024-02-21T02:10:29;38.70;;;19.00;;
3343;SDS011;1685;53.104;8.228;2024-02-21T02:12:58;34.57;;;17.20;;
3343;SDS011;1685;53.104;8.228;2024-02-21T02:15:25;37.80;;;18.00;;
3343;SDS011;1685;53.104;8.228;2024-02-21T02:17:52;46.93;;;17.30;;
3343;SDS011;1685;53.104;8.228;2024-02-21T02:20:19;34.63;;;17.50;;
3343;SDS011;1685;53.104;8.228;2024-02-21T02:22:48;36.00;;;16.83;;
3343;SDS011;1685;53.104;8.228;2024-02-21T02:25:17;42.60;;;17.07;;
3343;SDS011;1685;53.104;8.228;2024-02-21T02:27:44;34.80;;;17.67;;
3343;SDS011;1685;53.104;8.228;2024-02-21T02:30:11;37.53;;;17.27;;
3343;SDS011;1685;53.104;8.228;2024-02-21T02:32:39;37.50;;;17.73;;
3343;SDS011;1685;53.104;8.228;2024-02-21T02:35:06;38.20;;;17.57;;
3343;SDS011;1685;53.104;8.228;2024-02-21T02:37:33;36.37;;;17.37;;
3343;SDS011;1685;53.104;8.228;2024-02-21T02:40:00;37.77;;;15.57;;
3343;SDS011;1685;53.104;8.228;2024-02-21T02:42:29;27.33;;;16.60;;
3343;SDS011;1685;53.104;8.228;2024-02-21T02:44:56;28.80;;;15.83;;
3343;SDS011;1685;53.104;8.228;2024-02-21T02:47:23;41.93;;;16.27;;
3343;SDS011;1685;53.104;8.228;2024-02-21T02:49:50;48.43;;;17.87;;
3343;SDS011;1685;53.104;8.228;2024-02-21T02:52:17;36.73;;;16.00;;
3343;SDS011;1685;53.104;8.228;2024-02-21T02:54:45;30.43;;;16.50;;
3343;SDS011;1685;53.104;8.228;2024-02-21T02:57:16;42.47;;;17.27;;
3343;SDS011;1685;53.104;8.228;2024-02-21T02:59:48;40.20;;;17.60;;
3343;SDS011;1685;53.104;8.228;2024-02-21T03:02:15;38.03;;;17.70;;
3343;SDS011;1685;53.104;8.228;2024-02-21T03:04:42;42.70;;;17.83;;
3343;SDS011;1685;53.104;8.228;2024-02-21T03:07:10;42.23;;;19.53;;
3343;SDS011;1685;53.104;8.228;2024-02-21T03:09:37;39.40;;;18.00;;
3343;SDS011;1685;53.104;8.228;2024-02-21T03:12:05;50.37;;;18.30;;
3343;SDS011;1685;53.104;8.228;2024-02-21T03:14:32;43.20;;;20.80;;
3343;SDS011;1685;53.104;8.228;2024-02-21T03:17:01;32.37;;;17.10;;
3343;SDS011;1685;53.104;8.228;2024-02-21T03:19:29;36.80;;;17.90;;
3343;SDS011;1685;53.104;8.228;2024-02-21T03:21:57;40.17;;;19.53;;
3343;SDS011;1685;53.104;8.228;2024-02-21T03:24:24;38.57;;;18.83;;
3343;SDS011;1685;53.104;8.228;2024-02-21T03:26:51;33.37;;;17.57;;
3343;SDS011;1685;53.104;8.228;2024-02-21T03:29:18;42.47;;;18.47;;
3343;SDS011;1685;53.104;8.228;2024-02-21T03:31:45;40.83;;;17.90;;
3343;SDS011;1685;53.104;8.228;2024-02-21T03:34:14;40.43;;;17.10;;
3343;SDS011;1685;53.104;8.228;2024-02-21T03:36:41;38.83;;;18.53;;
3343;SDS011;1685;53.104;8.228;2024-02-21T03:39:08;38.60;;;18.23;;
3343;SDS011;1685;53.104;8.228;2024-02-21T03:41:35;33.97;;;18.27;;
3343;SDS011;1685;53.104;8.228;2024-02-21T03:44:03;37.10;;;18.27;;
3343;SDS011;1685;53.104;8.228;2024-02-21T03:46:30;49.03;;;18.53;;
3343;SDS011;1685;53.104;8.228;2024-02-21T03:48:58;36.20;;;17.50;;
3343;SDS011;1685;53.104;8.228;2024-02-21T03:51:27;36.40;;;17.80;;
3343;SDS011;1685;53.104;8.228;2024-02-21T03:53:54;36.00;;;19.53;;
3343;SDS011;1685;53.104;8.228;2024-02-21T03:56:21;36.73;;;16.50;;
3343;SDS011;1685;53.104;8.228;2024-02-21T03:58:48;37.97;;;17.67;;
3343;SDS011;1685;53.104;8.228;2024-02-21T04:01:15;32.60;;;16.80;;
3343;SDS011;1685;53.104;8.228;2024-02-21T04:03:43;34.50;;;17.30;;
3343;SDS011;1685;53.104;8.228;2024-02-21T04:06:10;42.07;;;17.73;;
3343;SDS011;1685;53.104;8.228;2024-02-21T04:08:39;38.53;;;17.17;;
3343;SDS011;1685;53.104;8.228;2024-02-21T04:11:06;37.00;;;16.77;;
3343;SDS011;1685;53.104;8.228;2024-02-21T04:13:33;31.20;;;17.67;;
3343;SDS011;1685;53.104;8.228;2024-02-21T04:16:00;31.47;;;18.60;;
3343;SDS011;1685;53.104;8.228;2024-02-21T04:18:28;29.13;;;16.20;;
3343;SDS011;1685;53.104;8.228;2024-02-21T04:20:55;27.73;;;16.00;;
3343;SDS011;1685;53.104;8.228;2024-02-21T04:23:22;39.47;;;17.10;;
3343;SDS011;1685;53.104;8.228;2024-02-21T04:25:51;28.70;;;15.73;;
3343;SDS011;1685;53.104;8.228;2024-02-21T04:28:18;35.37;;;16.80;;
3343;SDS011;1685;53.104;8.228;2024-02-21T04:30:45;32.90;;;15.20;;
3343;SDS011;1685;53.104;8.228;2024-02-21T04:33:13;29.30;;;14.30;;
3343;SDS011;1685;53.104;8.228;2024-02-21T04:35:40;27.33;;;14.90;;
3343;SDS011;1685;53.104;8.228;2024-02-21T04:38:07;30.13;;;15.97;;
3343;SDS011;1685;53.104;8.228;2024-02-21T04:40:34;27.70;;;15.50;;
3343;SDS011;1685;53.104;8.228;2024-02-21T04:43:03;33.03;;;16.13;;
3343;SDS011;1685;53.104;8.228;2024-02-21T04:45:30;28.63;;;16.20;;
3343;SDS011;1685;53.104;8.228;2024-02-21T04:47:57;29.60;;;15.80;;
3343;SDS011;1685;53.104;8.228;2024-02-21T04:50:24;28.23;;;15.37;;
3343;SDS011;1685;53.104;8.228;2024-02-21T04:52:51;25.33;;;15.00;;
3343;SDS011;1685;53.104;8.228;2024-02-21T04:55:18;26.27;;;14.77;;
3343;SDS011;1685;53.104;8.228;2024-02-21T04:57:45;25.80;;;15.07;;
3343;SDS011;1685;53.104;8.228;2024-02-21T05:00:14;24.60;;;14.30;;
3343;SDS011;1685;53.104;8.228;2024-02-21T05:02:42;31.93;;;13.77;;
3343;SDS011;1685;53.104;8.228;2024-02-21T05:05:09;21.53;;;11.80;;
3343;SDS011;1685;53.104;8.228;2024-02-21T05:07:36;22.60;;;12.23;;
3343;SDS011;1685;53.104;8.228;2024-02-21T05:10:03;27.23;;;13.90;;
3343;SDS011;1685;53.104;8.228;2024-02-21T05:12:31;24.10;;;13.10;;
3343;SDS011;1685;53.104;8.228;2024-02-21T05:14:58;19.03;;;12.47;;
3343;SDS011;1685;53.104;8.228;2024-02-21T05:17:27;20.30;;;12.60;;
3343;SDS011;1685;53.104;8.228;2024-02-21T05:19:54;20.70;;;12.17;;
3343;SDS011;1685;53.104;8.228;2024-02-21T05:22:21;24.53;;;13.00;;
3343;SDS011;1685;53.104;8.228;2024-02-21T05:24:48;25.00;;;12.13;;
3343;SDS011;1685;53.104;8.228;2024-02-21T05:27:15;25.53;;;12.60;;
3343;SDS011;1685;53.104;8.228;2024-02-21T05:29:43;21.57;;;12.40;;
3343;SDS011;1685;53.104;8.228;2024-02-21T05:32:10;18.50;;;11.37;;
3343;SDS011;1685;53.104;8.228;2024-02-21T05:34:39;31.20;;;12.80;;
3343;SDS011;1685;53.104;8.228;2024-02-21T05:37:06;18.70;;;12.10;;
3343;SDS011;1685;53.104;8.228;2024-02-21T05:39:33;20.20;;;12.60;;
3343;SDS011;1685;53.104;8.228;2024-02-21T05:42:00;18.40;;;11.60;;
3343;SDS011;1685;53.104;8.228;2024-02-21T05:44:28;17.90;;;12.00;;
3343;SDS011;1685;53.104;8.228;2024-02-21T05:46:55;24.23;;;11.50;;
3343;SDS011;1685;53.104;8.228;2024-02-21T05:49:22;22.50;;;12.10;;
3343;SDS011;1685;53.104;8.228;2024-02-21T05:51:51;20.00;;;11.60;;
3343;SDS011;1685;53.104;8.228;2024-02-21T05:54:17;22.53;;;12.73;;
3343;SDS011;1685;53.104;8.228;2024-02-21T05:56:45;24.80;;;12.07;;
3343;SDS011;1685;53.104;8.228;2024-02-21T05:59:12;19.50;;;12.10;;
3343;SDS011;1685;53.104;8.228;2024-02-21T06:01:39;27.97;;;13.43;;
3343;SDS011;1685;53.104;8.228;2024-02-21T06:04:06;22.73;;;13.20;;
3343;SDS011;1685;53.104;8.228;2024-02-21T06:06:34;21.33;;;12.87;;
3343;SDS011;1685;53.104;8.228;2024-02-21T06:09:02;23.23;;;12.27;;
3343;SDS011;1685;53.104;8.228;2024-02-21T06:11:29;28.83;;;14.07;;
3343;SDS011;1685;53.104;8.228;2024-02-21T06:13:56;24.87;;;13.70;;
3343;SDS011;1685;53.104;8.228;2024-02-21T06:16:23;23.07;;;14.17;;
3343;SDS011;1685;53.104;8.228;2024-02-21T06:18:50;27.83;;;13.60;;
3343;SDS011;1685;53.104;8.228;2024-02-21T06:21:18;26.23;;;14.40;;
3343;SDS011;1685;53.104;8.228;2024-02-21T06:23:45;33.57;;;14.30;;
3343;SDS011;1685;53.104;8.228;2024-02-21T06:26:13;28.43;;;14.00;;
3343;SDS011;1685;53.104;8.228;2024-02-21T06:28:41;30.20;;;14.47;;
3343;SDS011;1685;53.104;8.228;2024-02-21T06:31:08;31.30;;;15.53;;
3343;SDS011;1685;53.104;8.228;2024-02-21T06:33:35;35.60;;;16.50;;
3343;SDS011;1685;53.104;8.228;2024-02-21T06:36:02;35.13;;;14.90;;
3343;SDS011;1685;53.104;8.228;2024-02-21T06:38:29;36.67;;;15.70;;
3343;SDS011;1685;53.104;8.228;2024-02-21T06:40:56;30.27;;;16.20;;
3343;SDS011;1685;53.104;8.228;2024-02-21T06:43:26;26.77;;;15.03;;
3343;SDS011;1685;53.104;8.228;2024-02-21T06:45:53;33.33;;;16.83;;
3343;SDS011;1685;53.104;8.228;2024-02-21T06:48:22;29.30;;;15.90;;
3343;SDS011;1685;53.104;8.228;2024-02-21T06:50:49;36.23;;;15.57;;
3343;SDS011;1685;53.104;8.228;2024-02-21T06:53:16;33.27;;;15.60;;
3343;SDS011;1685;53.104;8.228;2024-02-21T06:55:43;26.37;;;15.27;;
3343;SDS011;1685;53.104;8.228;2024-02-21T06:58:10;35.40;;;17.33;;
3343;SDS011;1685;53.104;8.228;2024-02-21T07:00:39;35.33;;;17.07;;
3343;SDS011;1685;53.104;8.228;2024-02-21T07:03:08;42.50;;;16.83;;
3343;SDS011;1685;53.104;8.228;2024-02-21T07:05:35;33.67;;;16.63;;
3343;SDS011;1685;53.104;8.228;2024-02-21T07:08:03;39.50;;;18.57;;
3343;SDS011;1685;53.104;8.228;2024-02-21T07:10:30;44.73;;;18.30;;
3343;SDS011;1685;53.104;8.228;2024-02-21T07:12:57;40.73;;;18.37;;
3343;SDS011;1685;53.104;8.228;2024-02-21T07:15:25;45.27;;;19.60;;
3343;SDS011;1685;53.104;8.228;2024-02-21T07:17:55;37.30;;;19.80;;
3343;SDS011;1685;53.104;8.228;2024-02-21T07:20:21;34.70;;;18.53;;
3343;SDS011;1685;53.104;8.228;2024-02-21T07:22:49;45.40;;;18.73;;
3343;SDS011;1685;53.104;8.228;2024-02-21T07:25:16;42.40;;;20.33;;
3343;SDS011;1685;53.104;8.228;2024-02-21T07:27:43;54.77;;;20.67;;
3343;SDS011;1685;53.104;8.228;2024-02-21T07:30:11;58.87;;;22.50;;
3343;SDS011;1685;53.104;8.228;2024-02-21T07:32:38;55.97;;;20.30;;
3343;SDS011;1685;53.104;8.228;2024-02-21T07:35:07;72.10;;;21.40;;
3343;SDS011;1685;53.104;8.228;2024-02-21T07:37:35;53.43;;;22.10;;
3343;SDS011;1685;53.104;8.228;2024-02-21T07:40:04;48.97;;;20.57;;
3343;SDS011;1685;53.104;8.228;2024-02-21T07:42:32;64.70;;;22.10;;
3343;SDS011;1685;53.104;8.228;2024-02-21T07:44:59;55.00;;;19.80;;
3343;SDS011;1685;53.104;8.228;2024-02-21T07:47:26;60.37;;;20.50;;
3343;SDS011;1685;53.104;8.228;2024-02-21T07:49:53;45.77;;;20.23;;
3343;SDS011;1685;53.104;8.228;2024-02-21T07:52:22;53.90;;;20.80;;
3343;SDS011;1685;53.104;8.228;2024-02-21T07:54:49;54.57;;;20.20;;
3343;SDS011;1685;53.104;8.228;2024-02-21T07:57:16;47.00;;;21.50;;
3343;SDS011;1685;53.104;8.228;2024-02-21T07:59:44;49.03;;;20.67;;
3343;SDS011;1685;53.104;8.228;2024-02-21T08:02:12;53.90;;;21.23;;
3343;SDS011;1685;53.104;8.228;2024-02-21T08:04:40;50.17;;;20.43;;
3343;SDS011;1685;53.104;8.228;2024-02-21T08:07:07;51.13;;;20.70;;
3343;SDS011;1685;53.104;8.228;2024-02-21T08:09:35;65.87;;;21.27;;
3343;SDS011;1685;53.104;8.228;2024-02-21T08:12:04;61.97;;;21.90;;
3343;SDS011;1685;53.104;8.228;2024-02-21T08:14:32;69.60;;;23.53;;
3343;SDS011;1685;53.104;8.228;2024-02-21T08:16:59;44.60;;;21.10;;
3343;SDS011;1685;53.104;8.228;2024-02-21T08:19:26;48.10;;;21.30;;
3343;SDS011;1685;53.104;8.228;2024-02-21T08:21:53;54.73;;;23.03;;
3343;SDS011;1685;53.104;8.228;2024-02-21T08:24:21;54.33;;;20.27;;
3343;SDS011;1685;53.104;8.228;2024-02-21T08:26:49;54.53;;;21.50;;
3343;SDS011;1685;53.104;8.228;2024-02-21T08:29:16;59.87;;;19.47;;
3343;SDS011;1685;53.104;8.228;2024-02-21T08:31:43;44.50;;;20.23;;
3343;SDS011;1685;53.104;8.228;2024-02-21T08:34:10;70.07;;;21.17;;
3343;SDS011;1685;53.104;8.228;2024-02-21T08:36:38;42.83;;;20.50;;
3343;SDS011;1685;53.104;8.228;2024-02-21T08:39:05;55.57;;;19.53;;
3343;SDS011;1685;53.104;8.228;2024-02-21T08:41:34;41.23;;;21.17;;
3343;SDS011;1685;53.104;8.228;2024-02-21T08:44:03;63.83;;;21.57;;
3343;SDS011;1685;53.104;8.228;2024-02-21T08:46:30;51.70;;;21.03;;
3343;SDS011;1685;53.104;8.228;2024-02-21T08:48:57;43.57;;;22.63;;
3343;SDS011;1685;53.104;8.228;2024-02-21T08:51:24;53.57;;;20.80;;
3343;SDS011;1685;53.104;8.228;2024-02-21T08:53:52;45.90;;;21.90;;
3343;SDS011;1685;53.104;8.228;2024-02-21T08:56:20;49.80;;;21.40;;
3343;SDS011;1685;53.104;8.228;2024-02-21T08:58:47;47.37;;;20.20;;
3343;SDS011;1685;53.104;8.228;2024-02-21T09:01:15;48.03;;;19.27;;
3343;SDS011;1685;53.104;8.228;2024-02-21T09:03:42;43.83;;;20.40;;
3343;SDS011;1685;53.104;8.228;2024-02-21T09:06:11;50.77;;;22.43;;
3343;SDS011;1685;53.104;8.228;2024-02-21T09:08:39;43.70;;;22.70;;
3343;SDS011;1685;53.104;8.228;2024-02-21T09:11:06;50.00;;;20.80;;
3343;SDS011;1685;53.104;8.228;2024-02-21T09:13:33;53.70;;;21.23;;
3343;SDS011;1685;53.104;8.228;2024-02-21T09:16:00;42.27;;;20.67;;
3343;SDS011;1685;53.104;8.228;2024-02-21T09:18:29;39.80;;;20.50;;
3343;SDS011;1685;53.104;8.228;2024-02-21T09:20:56;40.77;;;19.97;;
3343;SDS011;1685;53.104;8.228;2024-02-21T09:23:24;47.30;;;20.40;;
3343;SDS011;1685;53.104;8.228;2024-02-21T09:25:51;61.23;;;21.23;;
3343;SDS011;1685;53.104;8.228;2024-02-21T09:28:19;38.53;;;20.30;;
3343;SDS011;1685;53.104;8.228;2024-02-21T09:30:47;45.67;;;20.70;;
3343;SDS011;1685;53.104;8.228;2024-02-21T09:33:14;38.07;;;20.77;;
3343;SDS011;1685;53.104;8.228;2024-02-21T09:35:43;36.33;;;20.73;;
3343;SDS011;1685;53.104;8.228;2024-02-21T09:38:10;45.60;;;18.53;;
3343;SDS011;1685;53.104;8.228;2024-02-21T09:40:37;43.70;;;20.50;;
3343;SDS011;1685;53.104;8.228;2024-02-21T09:43:07;45.27;;;20.40;;
3343;SDS011;1685;53.104;8.228;2024-02-21T09:45:34;45.77;;;20.67;;
3343;SDS011;1685;53.104;8.228;2024-02-21T09:48:06;48.77;;;19.67;;
3343;SDS011;1685;53.104;8.228;2024-02-21T09:50:47;36.40;;;19.07;;
3343;SDS011;1685;53.104;8.228;2024-02-21T09:53:16;42.23;;;19.07;;
3343;SDS011;1685;53.104;8.228;2024-02-21T09:55:44;40.50;;;17.40;;
3343;SDS011;1685;53.104;8.228;2024-02-21T09:58:11;47.20;;;18.93;;
3343;SDS011;1685;53.104;8.228;2024-02-21T10:00:38;45.27;;;19.73;;
3343;SDS011;1685;53.104;8.228;2024-02-21T10:03:06;41.53;;;18.50;;
3343;SDS011;1685;53.104;8.228;2024-02-21T10:05:35;40.60;;;18.43;;
3343;SDS011;1685;53.104;8.228;2024-02-21T10:08:03;40.03;;;18.73;;
3343;SDS011;1685;53.104;8.228;2024-02-21T10:10:40;38.47;;;18.00;;
3343;SDS011;1685;53.104;8.228;2024-02-21T10:13:07;34.60;;;18.17;;
3343;SDS011;1685;53.104;8.228;2024-02-21T10:15:34;33.53;;;17.20;;
3343;SDS011;1685;53.104;8.228;2024-02-21T10:18:02;31.60;;;16.80;;
3343;SDS011;1685;53.104;8.228;2024-02-21T10:20:29;36.77;;;18.30;;
3343;SDS011;1685;53.104;8.228;2024-02-21T10:23:04;27.80;;;16.33;;
3343;SDS011;1685;53.104;8.228;2024-02-21T10:25:34;34.07;;;17.07;;
3343;SDS011;1685;53.104;8.228;2024-02-21T10:28:03;26.30;;;15.60;;
3343;SDS011;1685;53.104;8.228;2024-02-21T10:30:30;32.40;;;16.63;;
3343;SDS011;1685;53.104;8.228;2024-02-21T10:32:57;39.20;;;17.87;;
3343;SDS011;1685;53.104;8.228;2024-02-21T10:35:25;38.20;;;17.00;;
3343;SDS011;1685;53.104;8.228;2024-02-21T10:37:53;36.40;;;17.43;;
3343;SDS011;1685;53.104;8.228;2024-02-21T10:40:22;29.93;;;16.87;;
3343;SDS011;1685;53.104;8.228;2024-02-21T10:42:50;31.60;;;15.53;;
3343;SDS011;1685;53.104;8.228;2024-02-21T10:45:24;30.40;;;16.03;;
3343;SDS011;1685;53.104;8.228;2024-02-21T10:47:55;31.33;;;15.60;;
3343;SDS011;1685;53.104;8.228;2024-02-21T10:50:23;30.97;;;16.27;;
3343;SDS011;1685;53.104;8.228;2024-02-21T10:52:55;30.13;;;16.70;;
3343;SDS011;1685;53.104;8.228;2024-02-21T10:55:32;28.30;;;15.90;;
3343;SDS011;1685;53.104;8.228;2024-02-21T10:58:04;28.80;;;16.80;;
3343;SDS011;1685;53.104;8.228;2024-02-21T11:00:31;29.60;;;16.73;;
3343;SDS011;1685;53.104;8.228;2024-02-21T11:02:59;29.20;;;15.50;;
3343;SDS011;1685;53.104;8.228;2024-02-21T11:05:27;21.40;;;14.67;;
3343;SDS011;1685;53.104;8.228;2024-02-21T11:07:54;26.57;;;15.50;;
3343;SDS011;1685;53.104;8.228;2024-02-21T11:10:23;28.93;;;15.37;;
3343;SDS011;1685;53.104;8.228;2024-02-21T11:12:53;23.00;;;14.50;;
3343;SDS011;1685;53.104;8.228;2024-02-21T11:15:24;22.97;;;15.27;;
3343;SDS011;1685;53.104;8.228;2024-02-21T11:17:55;27.43;;;14.83;;
3343;SDS011;1685;53.104;8.228;2024-02-21T11:20:31;22.80;;;13.03;;
3343;SDS011;1685;53.104;8.228;2024-02-21T11:22:59;23.43;;;12.70;;
3343;SDS011;1685;53.104;8.228;2024-02-21T11:25:27;23.27;;;13.57;;
3343;SDS011;1685;53.104;8.228;2024-02-21T11:28:01;21.17;;;13.40;;
3343;SDS011;1685;53.104;8.228;2024-02-21T11:30:29;21.70;;;11.70;;
3343;SDS011;1685;53.104;8.228;2024-02-21T11:33:01;24.90;;;13.27;;
3343;SDS011;1685;53.104;8.228;2024-02-21T11:35:30;21.30;;;11.77;;
3343;SDS011;1685;53.104;8.228;2024-02-21T11:38:07;24.60;;;12.40;;
3343;SDS011;1685;53.104;8.228;2024-02-21T11:40:35;27.50;;;12.33;;
3343;SDS011;1685;53.104;8.228;2024-02-21T11:43:03;21.40;;;11.90;;
3343;SDS011;1685;53.104;8.228;2024-02-21T11:45:31;21.27;;;11.10;;
3343;SDS011;1685;53.104;8.228;2024-02-21T11:47:59;19.20;;;11.93;;
3343;SDS011;1685;53.104;8.228;2024-02-21T11:50:28;19.43;;;10.80;;
3343;SDS011;1685;53.104;8.228;2024-02-21T11:52:55;21.60;;;9.93;;
3343;SDS011;1685;53.104;8.228;2024-02-21T11:55:22;19.10;;;8.80;;
3343;SDS011;1685;53.104;8.228;2024-02-21T11:57:50;12.00;;;8.60;;
3343;SDS011;1685;53.104;8.228;2024-02-21T12:00:19;19.27;;;10.13;;
3343;SDS011;1685;53.104;8.228;2024-02-21T12:02:46;20.53;;;11.30;;
3343;SDS011;1685;53.104;8.228;2024-02-21T12:05:15;14.33;;;8.90;;
3343;SDS011;1685;53.104;8.228;2024-02-21T12:07:42;15.27;;;8.17;;
3343;SDS011;1685;53.104;8.228;2024-02-21T12:10:10;18.83;;;9.07;;
3343;SDS011;1685;53.104;8.228;2024-02-21T12:12:37;19.90;;;8.30;;
3343;SDS011;1685;53.104;8.228;2024-02-21T12:15:04;25.60;;;8.80;;
3343;SDS011;1685;53.104;8.228;2024-02-21T12:17:33;13.33;;;8.17;;
3343;SDS011;1685;53.104;8.228;2024-02-21T12:20:01;14.83;;;8.60;;
3343;SDS011;1685;53.104;8.228;2024-02-21T12:22:30;16.00;;;7.80;;
3343;SDS011;1685;53.104;8.228;2024-02-21T12:24:58;12.40;;;8.00;;
3343;SDS011;1685;53.104;8.228;2024-02-21T12:27:26;15.13;;;7.63;;
3343;SDS011;1685;53.104;8.228;2024-02-21T12:29:53;15.40;;;7.03;;
3343;SDS011;1685;53.104;8.228;2024-02-21T12:32:21;10.63;;;6.63;;
3343;SDS011;1685;53.104;8.228;2024-02-21T12:34:49;12.77;;;7.00;;
3343;SDS011;1685;53.104;8.228;2024-02-21T12:37:16;29.57;;;7.90;;
3343;SDS011;1685;53.104;8.228;2024-02-21T12:39:44;12.90;;;6.83;;
3343;SDS011;1685;53.104;8.228;2024-02-21T12:42:12;12.03;;;7.10;;
3343;SDS011;1685;53.104;8.228;2024-02-21T12:44:39;13.27;;;6.63;;
3343;SDS011;1685;53.104;8.228;2024-02-21T12:47:07;10.87;;;5.90;;
3343;SDS011;1685;53.104;8.228;2024-02-21T12:49:34;10.67;;;6.40;;
3343;SDS011;1685;53.104;8.228;2024-02-21T12:52:02;12.53;;;6.17;;
3343;SDS011;1685;53.104;8.228;2024-02-21T12:54:30;14.50;;;6.50;;
3343;SDS011;1685;53.104;8.228;2024-02-21T12:56:57;10.80;;;6.40;;
3343;SDS011;1685;53.104;8.228;2024-02-21T12:59:27;9.07;;;5.90;;
3343;SDS011;1685;53.104;8.228;2024-02-21T13:01:55;11.40;;;7.07;;
3343;SDS011;1685;53.104;8.228;2024-02-21T13:04:22;9.50;;;6.73;;
3343;SDS011;1685;53.104;8.228;2024-02-21T13:06:49;7.27;;;5.97;;
3343;SDS011;1685;53.104;8.228;2024-02-21T13:09:17;22.47;;;6.80;;
3343;SDS011;1685;53.104;8.228;2024-02-21T13:11:45;7.23;;;5.87;;
3343;SDS011;1685;53.104;8.228;2024-02-21T13:14:12;13.27;;;7.17;;
3343;SDS011;1685;53.104;8.228;2024-02-21T13:16:39;14.63;;;7.93;;
3343;SDS011;1685;53.104;8.228;2024-02-21T13:19:06;8.17;;;5.97;;
3343;SDS011;1685;53.104;8.228;2024-02-21T13:21:38;8.90;;;6.70;;
3343;SDS011;1685;53.104;8.228;2024-02-21T13:24:06;8.97;;;6.13;;
3343;SDS011;1685;53.104;8.228;2024-02-21T13:26:34;10.20;;;6.60;;
3343;SDS011;1685;53.104;8.228;2024-02-21T13:29:01;8.13;;;6.80;;
3343;SDS011;1685;53.104;8.228;2024-02-21T13:31:28;9.37;;;7.30;;
3343;SDS011;1685;53.104;8.228;2024-02-21T13:33:56;14.10;;;5.90;;
3343;SDS011;1685;53.104;8.228;2024-02-21T13:36:23;10.13;;;6.93;;
3343;SDS011;1685;53.104;8.228;2024-02-21T13:38:51;6.77;;;5.70;;
3343;SDS011;1685;53.104;8.228;2024-02-21T13:41:18;6.77;;;5.30;;
3343;SDS011;1685;53.104;8.228;2024-02-21T13:43:48;7.70;;;6.10;;
3343;SDS011;1685;53.104;8.228;2024-02-21T13:46:15;10.00;;;5.60;;
3343;SDS011;1685;53.104;8.228;2024-02-21T13:48:42;8.47;;;5.70;;
3343;SDS011;1685;53.104;8.228;2024-02-21T13:51:10;6.43;;;5.43;;
3343;SDS011;1685;53.104;8.228;2024-02-21T13:53:37;13.33;;;5.30;;
3343;SDS011;1685;53.104;8.228;2024-02-21T13:56:04;9.13;;;5.87;;
3343;SDS011;1685;53.104;8.228;2024-02-21T13:58:34;6.63;;;5.97;;
3343;SDS011;1685;53.104;8.228;2024-02-21T14:01:03;11.70;;;8.60;;
3343;SDS011;1685;53.104;8.228;2024-02-21T14:03:31;10.07;;;7.17;;
3343;SDS011;1685;53.104;8.228;2024-02-21T14:05:58;11.87;;;7.70;;
3343;SDS011;1685;53.104;8.228;2024-02-21T14:08:25;17.20;;;9.97;;
3343;SDS011;1685;53.104;8.228;2024-02-21T14:10:52;14.60;;;9.30;;
3343;SDS011;1685;53.104;8.228;2024-02-21T14:13:20;14.10;;;10.07;;
3343;SDS011;1685;53.104;8.228;2024-02-21T14:15:48;20.73;;;11.07;;
3343;SDS011;1685;53.104;8.228;2024-02-21T14:18:16;16.90;;;10.80;;
3343;SDS011;1685;53.104;8.228;2024-02-21T14:20:43;15.10;;;11.17;;
3343;SDS011;1685;53.104;8.228;2024-02-21T14:23:12;13.87;;;12.30;;
3343;SDS011;1685;53.104;8.228;2024-02-21T14:25:39;14.77;;;12.33;;
3343;SDS011;1685;53.104;8.228;2024-02-21T14:28:07;17.57;;;12.50;;
3343;SDS011;1685;53.104;8.228;2024-02-21T14:30:35;24.07;;;15.13;;
3343;SDS011;1685;53.104;8.228;2024-02-21T14:33:02;17.23;;;12.57;;
3343;SDS011;1685;53.104;8.228;2024-02-21T14:35:31;14.70;;;11.50;;
3343;SDS011;1685;53.104;8.228;2024-02-21T14:37:59;14.90;;;12.30;;
3343;SDS011;1685;53.104;8.228;2024-02-21T14:40:26;17.67;;;13.50;;
3343;SDS011;1685;53.104;8.228;2024-02-21T14:42:55;17.63;;;13.63;;
3343;SDS011;1685;53.104;8.228;2024-02-21T14:45:22;23.87;;;12.40;;
3343;SDS011;1685;53.104;8.228;2024-02-21T14:47:49;17.07;;;14.07;;
3343;SDS011;1685;53.104;8.228;2024-02-21T14:50:16;16.40;;;12.27;;
3343;SDS011;1685;53.104;8.228;2024-02-21T14:52:45;19.10;;;14.27;;
3343;SDS011;1685;53.104;8.228;2024-02-21T14:55:13;14.63;;;12.13;;